sensor_id;sensor_type;location;lat;lon;timestamp;pressure;altitude;pressure_sealevel;temperature;humidity
45441;BME280;31189;38.790;-77.084;2022-07-06T00:01:08;100929.64;;;32.05;95.08
45441;BME280;31189;38.790;-77.084;2022-07-06T00:03:36;100926.77;;;31.98;94.60
45441;BME280;31189;38.790;-77.084;2022-07-06T00:06:04;100923.44;;;32.35;93.87
45441;BME280;31189;38.790;-77.084;2022-07-06T00:08:32;100919.17;;;31.83;94.94
45441;BME280;31189;38.790;-77.084;2022-07-06T00:11:01;100913.34;;;30.88;97.97
45441;BME280;31189;38.790;-77.084;2022-07-06T00:13:28;100904.81;;;31.25;95.79
45441;BME280;31189;38.790;-77.084;2022-07-06T00:15:56;100903.86;;;32.12;95.26
45441;BME280;31189;38.790;-77.084;2022-07-06T00:18:24;100902.58;;;31.41;96.75
45441;BME280;31189;38.790;-77.084;2022-07-06T00:20:52;100901.97;;;31.73;96.60
45441;BME280;31189;38.790;-77.084;2022-07-06T00:23:20;100905.97;;;32.12;95.70
45441;BME280;31189;38.790;-77.084;2022-07-06T00:25:48;100908.30;;;32.14;95.50
45441;BME280;31189;38.790;-77.084;2022-07-06T00:28:16;100910.96;;;31.57;97.17
45441;BME280;31189;38.790;-77.084;2022-07-06T00:30:44;100910.59;;;32.28;94.73
45441;BME280;31189;38.790;-77.084;2022-07-06T00:33:12;100908.88;;;31.83;94.29
45441;BME280;31189;38.790;-77.084;2022-07-06T00:35:39;100907.45;;;31.72;94.63
45441;BME280;31189;38.790;-77.084;2022-07-06T00:38:07;100909.54;;;31.84;95.23
45441;BME280;31189;38.790;-77.084;2022-07-06T00:40:35;100913.19;;;31.68;94.96
45441;BME280;31189;38.790;-77.084;2022-07-06T00:43:03;100915.20;;;32.20;94.08
45441;BME280;31189;38.790;-77.084;2022-07-06T00:45:31;100918.72;;;32.15;93.85
45441;BME280;31189;38.790;-77.084;2022-07-06T00:47:59;100915.52;;;30.85;96.82
45441;BME280;31189;38.790;-77.084;2022-07-06T00:50:28;100915.11;;;32.07;93.05
45441;BME280;31189;38.790;-77.084;2022-07-06T00:52:59;100913.81;;;31.88;95.08
45441;BME280;31189;38.790;-77.084;2022-07-06T00:55:29;100919.18;;;31.60;96.48
45441;BME280;31189;38.790;-77.084;2022-07-06T00:57:57;100925.75;;;31.46;96.12
45441;BME280;31189;38.790;-77.084;2022-07-06T01:00:27;100928.13;;;31.07;98.15
45441;BME280;31189;38.790;-77.084;2022-07-06T01:02:55;100924.79;;;31.71;96.06
45441;BME280;31189;38.790;-77.084;2022-07-06T01:05:23;100931.57;;;32.35;93.61
45441;BME280;31189;38.790;-77.084;2022-07-06T01:07:52;100934.26;;;31.55;96.74
45441;BME280;31189;38.790;-77.084;2022-07-06T01:10:21;100936.80;;;31.96;95.08
45441;BME280;31189;38.790;-77.084;2022-07-06T01:12:50;100937.65;;;31.49;96.82
45441;BME280;31189;38.790;-77.084;2022-07-06T01:15:20;100939.73;;;31.88;95.42
45441;BME280;31189;38.790;-77.084;2022-07-06T01:17:48;100943.41;;;31.33;96.35
45441;BME280;31189;38.790;-77.084;2022-07-06T01:20:17;100938.66;;;31.67;96.18
45441;BME280;31189;38.790;-77.084;2022-07-06T01:22:47;100934.67;;;31.76;95.61
45441;BME280;31189;38.790;-77.084;2022-07-06T01:25:15;100934.13;;;31.46;95.94
45441;BME280;31189;38.790;-77.084;2022-07-06T01:27:43;100938.10;;;31.47;96.75
45441;BME280;31189;38.790;-77.084;2022-07-06T01:30:13;100941.65;;;31.89;94.15
45441;BME280;31189;38.790;-77.084;2022-07-06T01:32:42;100937.97;;;31.62;94.31
45441;BME280;31189;38.790;-77.084;2022-07-06T01:35:12;100938.35;;;31.74;95.49
45441;BME280;31189;38.790;-77.084;2022-07-06T01:37:41;100939.12;;;30.80;93.82
45441;BME280;31189;38.790;-77.084;2022-07-06T01:40:11;100938.16;;;31.48;94.00
45441;BME280;31189;38.790;-77.084;2022-07-06T01:42:40;100936.08;;;31.09;95.54
45441;BME280;31189;38.790;-77.084;2022-07-06T01:45:09;100931.72;;;32.00;93.94
45441;BME280;31189;38.790;-77.084;2022-07-06T01:47:37;100935.02;;;31.40;94.91
45441;BME280;31189;38.790;-77.084;2022-07-06T01:50:07;100932.14;;;32.11;93.37
45441;BME280;31189;38.790;-77.084;2022-07-06T01:52:35;100931.62;;;31.65;92.77
45441;BME280;31189;38.790;-77.084;2022-07-06T01:55:04;100934.02;;;31.89;93.96
45441;BME280;31189;38.790;-77.084;2022-07-06T01:57:33;100936.05;;;31.05;95.67
45441;BME280;31189;38.790;-77.084;2022-07-06T02:00:00;100937.95;;;31.78;93.73
45441;BME280;31189;38.790;-77.084;2022-07-06T02:02:28;100943.14;;;29.76;100.00
45441;BME280;31189;38.790;-77.084;2022-07-06T02:04:56;100943.34;;;31.40;94.35
45441;BME280;31189;38.790;-77.084;2022-07-06T02:07:24;100943.75;;;31.90;92.94
45441;BME280;31189;38.790;-77.084;2022-07-06T02:09:52;100941.77;;;31.60;92.74
45441;BME280;31189;38.790;-77.084;2022-07-06T02:12:20;100941.70;;;30.79;93.14
45441;BME280;31189;38.790;-77.084;2022-07-06T02:14:48;100945.83;;;30.78;93.92
45441;BME280;31189;38.790;-77.084;2022-07-06T02:17:16;100942.56;;;31.49;91.14
45441;BME280;31189;38.790;-77.084;2022-07-06T02:19:44;100941.93;;;31.60;89.20
45441;BME280;31189;38.790;-77.084;2022-07-06T02:22:11;100940.43;;;31.44;90.06
45441;BME280;31189;38.790;-77.084;2022-07-06T02:24:38;100941.24;;;31.21;91.39
45441;BME280;31189;38.790;-77.084;2022-07-06T02:27:06;100936.96;;;31.29;90.61
45441;BME280;31189;38.790;-77.084;2022-07-06T02:29:34;100933.51;;;30.98;88.97
45441;BME280;31189;38.790;-77.084;2022-07-06T02:32:01;100929.30;;;31.50;89.39
45441;BME280;31189;38.790;-77.084;2022-07-06T02:34:29;100926.50;;;31.54;87.63
45441;BME280;31189;38.790;-77.084;2022-07-06T02:36:57;100926.28;;;31.71;88.59
45441;BME280;31189;38.790;-77.084;2022-07-06T02:39:25;100926.42;;;29.96;92.50
45441;BME280;31189;38.790;-77.084;2022-07-06T02:41:53;100920.29;;;30.85;89.61
45441;BME280;31189;38.790;-77.084;2022-07-06T02:44:21;100917.32;;;31.01;88.90
45441;BME280;31189;38.790;-77.084;2022-07-06T02:46:49;100917.71;;;29.95;91.71
45441;BME280;31189;38.790;-77.084;2022-07-06T02:49:16;100918.42;;;30.73;89.98
45441;BME280;31189;38.790;-77.084;2022-07-06T02:51:44;100917.91;;;30.93;85.74
45441;BME280;31189;38.790;-77.084;2022-07-06T02:54:12;100917.99;;;31.08;85.47
45441;BME280;31189;38.790;-77.084;2022-07-06T02:56:39;100913.74;;;30.18;87.94
45441;BME280;31189;38.790;-77.084;2022-07-06T02:59:06;100913.59;;;30.99;87.30
45441;BME280;31189;38.790;-77.084;2022-07-06T03:01:34;100912.55;;;30.80;86.30
45441;BME280;31189;38.790;-77.084;2022-07-06T03:04:02;100913.78;;;30.82;85.18
45441;BME280;31189;38.790;-77.084;2022-07-06T03:06:30;100910.64;;;31.11;84.02
45441;BME280;31189;38.790;-77.084;2022-07-06T03:08:58;100908.71;;;31.03;82.17
45441;BME280;31189;38.790;-77.084;2022-07-06T03:11:25;100905.44;;;30.87;82.51
45441;BME280;31189;38.790;-77.084;2022-07-06T03:13:53;100907.48;;;31.60;81.60
45441;BME280;31189;38.790;-77.084;2022-07-06T03:16:21;100906.63;;;30.90;81.83
45441;BME280;31189;38.790;-77.084;2022-07-06T03:18:48;100903.27;;;31.06;81.73
45441;BME280;31189;38.790;-77.084;2022-07-06T03:21:16;100906.91;;;29.65;86.20
45441;BME280;31189;38.790;-77.084;2022-07-06T03:23:43;100911.16;;;30.73;82.83
45441;BME280;31189;38.790;-77.084;2022-07-06T03:26:12;100912.36;;;30.51;83.45
45441;BME280;31189;38.790;-77.084;2022-07-06T03:28:39;100913.32;;;29.12;86.91
45441;BME280;31189;38.790;-77.084;2022-07-06T03:31:07;100914.95;;;29.47;88.29
45441;BME280;31189;38.790;-77.084;2022-07-06T03:33:36;100910.63;;;29.38;88.35
45441;BME280;31189;38.790;-77.084;2022-07-06T03:36:04;100908.58;;;29.13;90.48
45441;BME280;31189;38.790;-77.084;2022-07-06T03:38:32;100903.79;;;27.50;95.44
45441;BME280;31189;38.790;-77.084;2022-07-06T03:41:00;100901.50;;;28.98;90.76
45441;BME280;31189;38.790;-77.084;2022-07-06T03:43:28;100901.26;;;29.59;88.13
45441;BME280;31189;38.790;-77.084;2022-07-06T03:45:55;100900.38;;;29.95;84.58
45441;BME280;31189;38.790;-77.084;2022-07-06T03:48:23;100904.33;;;30.25;83.60
45441;BME280;31189;38.790;-77.084;2022-07-06T03:50:51;100910.22;;;30.34;82.59
45441;BME280;31189;38.790;-77.084;2022-07-06T03:53:19;100916.58;;;29.45;86.13
45441;BME280;31189;38.790;-77.084;2022-07-06T03:55:46;100910.61;;;29.92;83.61
45441;BME280;31189;38.790;-77.084;2022-07-06T03:58:14;100904.78;;;30.52;80.57
45441;BME280;31189;38.790;-77.084;2022-07-06T04:00:42;100900.37;;;29.82;80.94
45441;BME280;31189;38.790;-77.084;2022-07-06T04:03:09;100898.52;;;29.98;82.49
45441;BME280;31189;38.790;-77.084;2022-07-06T04:05:37;100906.62;;;29.63;82.90
45441;BME280;31189;38.790;-77.084;2022-07-06T04:08:05;100906.90;;;29.27;83.87
45441;BME280;31189;38.790;-77.084;2022-07-06T04:10:33;100913.71;;;28.69;85.18
45441;BME280;31189;38.790;-77.084;2022-07-06T04:13:01;100919.84;;;28.39;86.32
45441;BME280;31189;38.790;-77.084;2022-07-06T04:15:29;100927.62;;;28.55;86.51
45441;BME280;31189;38.790;-77.084;2022-07-06T04:17:58;100923.38;;;26.63;94.32
45441;BME280;31189;38.790;-77.084;2022-07-06T04:20:26;100929.56;;;26.70;95.58
45441;BME280;31189;38.790;-77.084;2022-07-06T04:22:54;100932.82;;;28.22;89.25
45441;BME280;31189;38.790;-77.084;2022-07-06T04:25:22;100933.74;;;28.81;86.69
45441;BME280;31189;38.790;-77.084;2022-07-06T04:27:50;100943.47;;;28.84;85.26
45441;BME280;31189;38.790;-77.084;2022-07-06T04:30:18;100946.37;;;28.19;88.03
45441;BME280;31189;38.790;-77.084;2022-07-06T04:32:46;100947.17;;;27.76;88.75
45441;BME280;31189;38.790;-77.084;2022-07-06T04:35:14;100946.04;;;27.71;88.67
45441;BME280;31189;38.790;-77.084;2022-07-06T04:37:41;100941.07;;;27.75;89.12
45441;BME280;31189;38.790;-77.084;2022-07-06T04:40:09;100944.51;;;28.41;87.79
45441;BME280;31189;38.790;-77.084;2022-07-06T04:42:38;100944.27;;;28.98;84.14
45441;BME280;31189;38.790;-77.084;2022-07-06T04:45:07;100941.73;;;28.65;84.98
45441;BME280;31189;38.790;-77.084;2022-07-06T04:47:35;100935.40;;;27.17;88.28
45441;BME280;31189;38.790;-77.084;2022-07-06T04:50:03;100928.82;;;27.35;88.08
45441;BME280;31189;38.790;-77.084;2022-07-06T04:52:32;100928.94;;;28.96;81.62
45441;BME280;31189;38.790;-77.084;2022-07-06T04:55:00;100930.19;;;28.78;82.35
45441;BME280;31189;38.790;-77.084;2022-07-06T04:57:28;100936.14;;;28.40;83.35
45441;BME280;31189;38.790;-77.084;2022-07-06T04:59:56;100945.06;;;29.51;78.61
45441;BME280;31189;38.790;-77.084;2022-07-06T05:02:25;100947.59;;;27.86;85.10
45441;BME280;31189;38.790;-77.084;2022-07-06T05:04:53;100950.08;;;29.59;78.14
45441;BME280;31189;38.790;-77.084;2022-07-06T05:07:21;100944.60;;;28.30;82.89
45441;BME280;31189;38.790;-77.084;2022-07-06T05:09:48;100946.66;;;27.79;83.50
45441;BME280;31189;38.790;-77.084;2022-07-06T05:12:16;100950.80;;;29.21;77.35
45441;BME280;31189;38.790;-77.084;2022-07-06T05:14:44;100952.97;;;26.85;86.42
45441;BME280;31189;38.790;-77.084;2022-07-06T05:17:11;100952.02;;;27.24;86.06
45441;BME280;31189;38.790;-77.084;2022-07-06T05:19:39;100957.46;;;27.74;83.72
45441;BME280;31189;38.790;-77.084;2022-07-06T05:22:06;100958.63;;;29.30;78.29
45441;BME280;31189;38.790;-77.084;2022-07-06T05:24:34;100961.11;;;29.82;75.87
45441;BME280;31189;38.790;-77.084;2022-07-06T05:27:01;100960.21;;;30.22;72.97
45441;BME280;31189;38.790;-77.084;2022-07-06T05:29:29;100956.87;;;30.40;72.13
45441;BME280;31189;38.790;-77.084;2022-07-06T05:31:57;100957.49;;;30.71;71.86
45441;BME280;31189;38.790;-77.084;2022-07-06T05:34:24;100952.57;;;30.81;70.37
45441;BME280;31189;38.790;-77.084;2022-07-06T05:36:52;100944.90;;;30.80;68.05
45441;BME280;31189;38.790;-77.084;2022-07-06T05:39:21;100947.90;;;31.00;67.39
45441;BME280;31189;38.790;-77.084;2022-07-06T05:41:48;100948.81;;;30.88;67.93
45441;BME280;31189;38.790;-77.084;2022-07-06T05:44:16;100951.31;;;30.88;67.54
45441;BME280;31189;38.790;-77.084;2022-07-06T05:46:44;100959.30;;;30.92;67.41
45441;BME280;31189;38.790;-77.084;2022-07-06T05:49:11;100961.98;;;31.07;67.31
45441;BME280;31189;38.790;-77.084;2022-07-06T05:51:38;100958.30;;;31.03;66.54
45441;BME280;31189;38.790;-77.084;2022-07-06T05:54:06;100955.61;;;31.17;66.85
45441;BME280;31189;38.790;-77.084;2022-07-06T05:56:34;100952.41;;;30.56;67.86
45441;BME280;31189;38.790;-77.084;2022-07-06T05:59:02;100960.80;;;31.27;72.99
45441;BME280;31189;38.790;-77.084;2022-07-06T06:01:30;100954.36;;;31.17;72.08
45441;BME280;31189;38.790;-77.084;2022-07-06T06:03:58;100948.85;;;30.59;71.01
45441;BME280;31189;38.790;-77.084;2022-07-06T06:06:26;100952.95;;;31.09;72.92
45441;BME280;31189;38.790;-77.084;2022-07-06T06:08:54;100962.32;;;31.12;71.89
45441;BME280;31189;38.790;-77.084;2022-07-06T06:11:21;100963.62;;;31.33;72.81
45441;BME280;31189;38.790;-77.084;2022-07-06T06:13:48;100961.21;;;30.98;72.00
45441;BME280;31189;38.790;-77.084;2022-07-06T06:16:16;100959.11;;;31.05;72.68
45441;BME280;31189;38.790;-77.084;2022-07-06T06:18:44;100956.95;;;30.54;70.56
45441;BME280;31189;38.790;-77.084;2022-07-06T06:21:12;100961.21;;;29.99;69.62
45441;BME280;31189;38.790;-77.084;2022-07-06T06:23:39;100963.83;;;30.56;69.52
45441;BME280;31189;38.790;-77.084;2022-07-06T06:26:06;100959.28;;;30.64;69.70
45441;BME280;31189;38.790;-77.084;2022-07-06T06:28:34;100961.33;;;30.10;74.41
45441;BME280;31189;38.790;-77.084;2022-07-06T06:31:02;100947.78;;;29.97;73.82
45441;BME280;31189;38.790;-77.084;2022-07-06T06:33:31;100939.75;;;29.90;74.13
45441;BME280;31189;38.790;-77.084;2022-07-06T06:35:59;100946.67;;;29.86;72.49
45441;BME280;31189;38.790;-77.084;2022-07-06T06:38:26;100948.73;;;29.79;78.96
45441;BME280;31189;38.790;-77.084;2022-07-06T06:40:53;100940.34;;;30.16;76.26
45441;BME280;31189;38.790;-77.084;2022-07-06T06:43:21;100939.14;;;29.70;74.38
45441;BME280;31189;38.790;-77.084;2022-07-06T06:45:48;100939.90;;;29.70;78.83
45441;BME280;31189;38.790;-77.084;2022-07-06T06:48:16;100945.44;;;29.76;80.98
45441;BME280;31189;38.790;-77.084;2022-07-06T06:50:43;100959.32;;;30.06;77.89
45441;BME280;31189;38.790;-77.084;2022-07-06T06:53:11;100966.87;;;29.79;82.08
45441;BME280;31189;38.790;-77.084;2022-07-06T06:55:40;100971.76;;;29.79;80.60
45441;BME280;31189;38.790;-77.084;2022-07-06T06:58:08;100965.20;;;29.65;77.67
45441;BME280;31189;38.790;-77.084;2022-07-06T07:00:36;100969.67;;;29.61;76.80
45441;BME280;31189;38.790;-77.084;2022-07-06T07:03:04;100970.43;;;30.06;76.04
45441;BME280;31189;38.790;-77.084;2022-07-06T07:05:32;100975.10;;;29.68;76.24
45441;BME280;31189;38.790;-77.084;2022-07-06T07:08:00;100970.69;;;29.80;75.73
45441;BME280;31189;38.790;-77.084;2022-07-06T07:10:27;100968.61;;;29.29;77.66
45441;BME280;31189;38.790;-77.084;2022-07-06T07:12:55;100977.86;;;29.57;75.65
45441;BME280;31189;38.790;-77.084;2022-07-06T07:15:22;100969.91;;;29.41;77.90
45441;BME280;31189;38.790;-77.084;2022-07-06T07:17:50;100977.54;;;29.13;77.70
45441;BME280;31189;38.790;-77.084;2022-07-06T07:20:18;100987.03;;;29.46;78.49
45441;BME280;31189;38.790;-77.084;2022-07-06T07:22:46;100985.19;;;28.97;78.98
45441;BME280;31189;38.790;-77.084;2022-07-06T07:25:14;100990.68;;;29.52;79.50
45441;BME280;31189;38.790;-77.084;2022-07-06T07:27:41;100977.71;;;29.27;78.26
45441;BME280;31189;38.790;-77.084;2022-07-06T07:30:11;100973.98;;;29.33;79.09
45441;BME280;31189;38.790;-77.084;2022-07-06T07:32:38;100985.34;;;29.22;80.15
45441;BME280;31189;38.790;-77.084;2022-07-06T07:35:07;100979.13;;;28.72;80.62
45441;BME280;31189;38.790;-77.084;2022-07-06T07:37:36;100982.18;;;28.41;81.52
45441;BME280;31189;38.790;-77.084;2022-07-06T07:40:04;100993.29;;;28.99;83.14
45441;BME280;31189;38.790;-77.084;2022-07-06T07:42:33;100991.94;;;28.94;82.66
45441;BME280;31189;38.790;-77.084;2022-07-06T07:45:01;100987.65;;;28.29;85.11
45441;BME280;31189;38.790;-77.084;2022-07-06T07:47:29;100983.45;;;28.52;83.89
45441;BME280;31189;38.790;-77.084;2022-07-06T07:49:56;100983.30;;;28.26;85.84
45441;BME280;31189;38.790;-77.084;2022-07-06T07:52:24;100978.56;;;28.13;85.75
45441;BME280;31189;38.790;-77.084;2022-07-06T07:54:51;100970.94;;;28.12;83.74
45441;BME280;31189;38.790;-77.084;2022-07-06T07:57:19;100975.91;;;28.38;83.33
45441;BME280;31189;38.790;-77.084;2022-07-06T07:59:46;100979.49;;;28.55;83.66
45441;BME280;31189;38.790;-77.084;2022-07-06T08:02:13;100984.26;;;29.06;82.31
45441;BME280;31189;38.790;-77.084;2022-07-06T08:04:42;100977.35;;;28.70;82.22
45441;BME280;31189;38.790;-77.084;2022-07-06T08:07:10;100965.48;;;28.51;82.42
45441;BME280;31189;38.790;-77.084;2022-07-06T08:09:38;100965.51;;;28.67;82.97
45441;BME280;31189;38.790;-77.084;2022-07-06T08:12:06;100957.07;;;28.56;82.12
45441;BME280;31189;38.790;-77.084;2022-07-06T08:14:34;100950.54;;;28.62;80.91
45441;BME280;31189;38.790;-77.084;2022-07-06T08:17:03;100939.73;;;28.95;80.43
45441;BME280;31189;38.790;-77.084;2022-07-06T08:19:31;100933.60;;;29.02;80.17
45441;BME280;31189;38.790;-77.084;2022-07-06T08:21:59;100934.50;;;28.77;81.98
45441;BME280;31189;38.790;-77.084;2022-07-06T08:24:27;100935.09;;;28.48;85.32
45441;BME280;31189;38.790;-77.084;2022-07-06T08:26:54;100941.86;;;28.70;84.67
45441;BME280;31189;38.790;-77.084;2022-07-06T08:29:22;100948.31;;;28.74;85.73
45441;BME280;31189;38.790;-77.084;2022-07-06T08:31:49;100949.66;;;28.39;84.75
45441;BME280;31189;38.790;-77.084;2022-07-06T08:34:17;100947.26;;;28.84;84.13
45441;BME280;31189;38.790;-77.084;2022-07-06T08:36:46;100948.65;;;28.25;84.82
45441;BME280;31189;38.790;-77.084;2022-07-06T08:39:13;100950.81;;;28.23;84.69
45441;BME280;31189;38.790;-77.084;2022-07-06T08:41:42;100945.45;;;28.21;84.54
45441;BME280;31189;38.790;-77.084;2022-07-06T08:44:11;100944.27;;;28.22;84.32
45441;BME280;31189;38.790;-77.084;2022-07-06T08:46:39;100957.03;;;28.10;87.00
45441;BME280;31189;38.790;-77.084;2022-07-06T08:49:07;100956.47;;;27.87;88.34
45441;BME280;31189;38.790;-77.084;2022-07-06T08:51:35;100954.62;;;28.07;85.79
45441;BME280;31189;38.790;-77.084;2022-07-06T08:54:04;100958.80;;;28.44;84.85
45441;BME280;31189;38.790;-77.084;2022-07-06T08:56:32;100965.88;;;28.00;89.07
45441;BME280;31189;38.790;-77.084;2022-07-06T08:59:00;100962.17;;;28.63;85.18
45441;BME280;31189;38.790;-77.084;2022-07-06T09:01:28;100965.55;;;29.11;82.18
45441;BME280;31189;38.790;-77.084;2022-07-06T09:03:57;100964.82;;;29.14;81.50
45441;BME280;31189;38.790;-77.084;2022-07-06T09:06:26;100965.85;;;28.91;81.55
45441;BME280;31189;38.790;-77.084;2022-07-06T09:08:56;100966.88;;;28.56;81.78
45441;BME280;31189;38.790;-77.084;2022-07-06T09:11:25;100969.20;;;28.67;81.33
45441;BME280;31189;38.790;-77.084;2022-07-06T09:13:53;100969.67;;;28.54;81.08
45441;BME280;31189;38.790;-77.084;2022-07-06T09:16:28;100975.28;;;28.21;83.40
45441;BME280;31189;38.790;-77.084;2022-07-06T09:18:56;100980.16;;;27.99;86.92
45441;BME280;31189;38.790;-77.084;2022-07-06T09:21:25;100980.73;;;28.50;84.57
45441;BME280;31189;38.790;-77.084;2022-07-06T09:23:54;100978.04;;;28.36;85.96
45441;BME280;31189;38.790;-77.084;2022-07-06T09:26:23;100978.21;;;28.22;86.57
45441;BME280;31189;38.790;-77.084;2022-07-06T09:28:51;100984.72;;;27.55;88.86
45441;BME280;31189;38.790;-77.084;2022-07-06T09:31:19;100980.96;;;28.35;84.16
45441;BME280;31189;38.790;-77.084;2022-07-06T09:33:56;100983.97;;;28.21;84.76
45441;BME280;31189;38.790;-77.084;2022-07-06T09:36:39;100983.87;;;28.78;83.68
45441;BME280;31189;38.790;-77.084;2022-07-06T09:39:24;100990.89;;;28.72;84.10
45441;BME280;31189;38.790;-77.084;2022-07-06T09:41:53;100994.36;;;28.53;85.84
45441;BME280;31189;38.790;-77.084;2022-07-06T09:44:23;100994.76;;;28.73;84.73
45441;BME280;31189;38.790;-77.084;2022-07-06T09:46:51;100991.89;;;28.07;86.10
45441;BME280;31189;38.790;-77.084;2022-07-06T09:49:20;100991.96;;;28.20;86.14
45441;BME280;31189;38.790;-77.084;2022-07-06T09:51:50;100987.80;;;27.75;86.61
45441;BME280;31189;38.790;-77.084;2022-07-06T09:54:20;100980.26;;;27.97;85.17
45441;BME280;31189;38.790;-77.084;2022-07-06T09:56:48;100976.33;;;28.42;84.56
45441;BME280;31189;38.790;-77.084;2022-07-06T09:59:18;100974.34;;;28.04;85.11
45441;BME280;31189;38.790;-77.084;2022-07-06T10:01:46;100971.09;;;28.15;87.39
45441;BME280;31189;38.790;-77.084;2022-07-06T10:04:14;100976.11;;;28.14;87.64
45441;BME280;31189;38.790;-77.084;2022-07-06T10:06:42;100986.15;;;27.96;87.26
45441;BME280;31189;38.790;-77.084;2022-07-06T10:09:13;100996.69;;;28.45;87.12
45441;BME280;31189;38.790;-77.084;2022-07-06T10:11:43;101001.66;;;28.04;88.43
45441;BME280;31189;38.790;-77.084;2022-07-06T10:14:12;100996.20;;;28.12;86.20
45441;BME280;31189;38.790;-77.084;2022-07-06T10:16:42;100994.68;;;28.16;86.75
45441;BME280;31189;38.790;-77.084;2022-07-06T10:19:10;100996.29;;;28.17;87.25
45441;BME280;31189;38.790;-77.084;2022-07-06T10:21:39;100999.84;;;27.62;91.10
45441;BME280;31189;38.790;-77.084;2022-07-06T10:24:08;100997.60;;;28.53;86.75
45441;BME280;31189;38.790;-77.084;2022-07-06T10:26:37;100997.92;;;27.73;88.15
45441;BME280;31189;38.790;-77.084;2022-07-06T10:29:06;100992.97;;;28.31;86.92
45441;BME280;31189;38.790;-77.084;2022-07-06T10:31:38;100983.27;;;28.34;86.47
45441;BME280;31189;38.790;-77.084;2022-07-06T10:34:09;100982.76;;;28.02;86.66
45441;BME280;31189;38.790;-77.084;2022-07-06T10:36:38;101002.08;;;28.03;87.88
45441;BME280;31189;38.790;-77.084;2022-07-06T10:39:07;101011.72;;;28.24;87.60
45441;BME280;31189;38.790;-77.084;2022-07-06T10:41:35;101003.93;;;27.98;88.18
45441;BME280;31189;38.790;-77.084;2022-07-06T10:44:16;100997.97;;;28.06;90.26
45441;BME280;31189;38.790;-77.084;2022-07-06T10:46:51;100997.11;;;27.59;89.79
45441;BME280;31189;38.790;-77.084;2022-07-06T10:49:20;101005.44;;;28.38;87.96
45441;BME280;31189;38.790;-77.084;2022-07-06T10:51:48;101008.60;;;28.02;88.12
45441;BME280;31189;38.790;-77.084;2022-07-06T10:54:17;101017.48;;;28.37;88.94
45441;BME280;31189;38.790;-77.084;2022-07-06T10:56:47;101023.92;;;28.26;88.11
45441;BME280;31189;38.790;-77.084;2022-07-06T10:59:17;101030.63;;;28.64;87.72
45441;BME280;31189;38.790;-77.084;2022-07-06T11:02:18;101039.24;;;29.28;88.40
45441;BME280;31189;38.790;-77.084;2022-07-06T11:04:47;101032.01;;;29.07;87.03
45441;BME280;31189;38.790;-77.084;2022-07-06T11:07:16;101029.05;;;28.86;86.66
45441;BME280;31189;38.790;-77.084;2022-07-06T11:09:54;101025.68;;;29.15;86.09
45441;BME280;31189;38.790;-77.084;2022-07-06T11:12:24;101028.03;;;28.19;85.05
45441;BME280;31189;38.790;-77.084;2022-07-06T11:14:53;101029.87;;;29.34;84.46
45441;BME280;31189;38.790;-77.084;2022-07-06T11:17:21;101031.15;;;29.12;83.92
45441;BME280;31189;38.790;-77.084;2022-07-06T11:19:50;101035.20;;;29.08;85.21
45441;BME280;31189;38.790;-77.084;2022-07-06T11:22:18;101029.86;;;29.17;86.34
45441;BME280;31189;38.790;-77.084;2022-07-06T11:24:47;101022.75;;;29.13;84.64
45441;BME280;31189;38.790;-77.084;2022-07-06T11:27:15;101026.63;;;29.13;83.22
45441;BME280;31189;38.790;-77.084;2022-07-06T11:29:43;101027.35;;;29.14;83.06
45441;BME280;31189;38.790;-77.084;2022-07-06T11:32:11;101034.89;;;29.06;83.40
45441;BME280;31189;38.790;-77.084;2022-07-06T11:34:42;101032.59;;;28.96;81.68
45441;BME280;31189;38.790;-77.084;2022-07-06T11:37:11;101037.94;;;29.44;81.11
45441;BME280;31189;38.790;-77.084;2022-07-06T11:39:40;101040.76;;;29.48;81.55
45441;BME280;31189;38.790;-77.084;2022-07-06T11:42:09;101039.42;;;29.75;80.69
45441;BME280;31189;38.790;-77.084;2022-07-06T11:44:38;101043.85;;;29.37;80.05
45441;BME280;31189;38.790;-77.084;2022-07-06T11:47:08;101051.23;;;29.74;81.19
45441;BME280;31189;38.790;-77.084;2022-07-06T11:49:38;101054.45;;;29.61;81.21
45441;BME280;31189;38.790;-77.084;2022-07-06T11:52:07;101055.41;;;29.74;81.30
45441;BME280;31189;38.790;-77.084;2022-07-06T11:54:36;101062.27;;;29.65;80.33
45441;BME280;31189;38.790;-77.084;2022-07-06T11:57:06;101054.71;;;29.52;79.66
45441;BME280;31189;38.790;-77.084;2022-07-06T11:59:36;101049.88;;;29.81;78.75
45441;BME280;31189;38.790;-77.084;2022-07-06T12:02:06;101054.58;;;30.47;79.73
45441;BME280;31189;38.790;-77.084;2022-07-06T12:04:37;101047.11;;;30.57;78.81
45441;BME280;31189;38.790;-77.084;2022-07-06T12:07:06;101050.86;;;30.70;77.61
45441;BME280;31189;38.790;-77.084;2022-07-06T12:09:35;101048.12;;;30.61;76.50
45441;BME280;31189;38.790;-77.084;2022-07-06T12:12:04;101043.84;;;30.74;75.26
45441;BME280;31189;38.790;-77.084;2022-07-06T12:14:34;101039.38;;;30.91;76.54
45441;BME280;31189;38.790;-77.084;2022-07-06T12:17:04;101037.68;;;30.51;75.71
45441;BME280;31189;38.790;-77.084;2022-07-06T12:19:33;101026.30;;;30.77;71.63
45441;BME280;31189;38.790;-77.084;2022-07-06T12:22:02;101022.46;;;30.55;73.43
45441;BME280;31189;38.790;-77.084;2022-07-06T12:24:31;101022.84;;;30.93;74.42
45441;BME280;31189;38.790;-77.084;2022-07-06T12:27:10;101026.50;;;30.58;74.45
45441;BME280;31189;38.790;-77.084;2022-07-06T12:29:38;101028.72;;;30.06;75.05
45441;BME280;31189;38.790;-77.084;2022-07-06T12:32:07;101023.93;;;29.97;75.16
45441;BME280;31189;38.790;-77.084;2022-07-06T12:34:41;101031.89;;;29.63;75.58
45441;BME280;31189;38.790;-77.084;2022-07-06T12:37:10;101025.48;;;29.58;75.12